createdAt,value
2023-03-13T00:00:54.031Z,5.75
2023-03-13T00:01:54.094Z,9.30
2023-03-13T00:02:54.020Z,7.36
2023-03-13T00:03:53.999Z,6.07
2023-03-13T00:04:54.019Z,6.40
2023-03-13T00:05:53.970Z,5.43
2023-03-13T00:06:53.952Z,8.33
2023-03-13T00:07:53.964Z,6.07
2023-03-13T00:08:53.922Z,7.36
2023-03-13T00:09:53.913Z,5.11
2023-03-13T00:10:53.898Z,5.11
2023-03-13T00:11:53.885Z,5.43
2023-03-13T00:12:53.869Z,7.04
2023-03-13T00:13:53.858Z,4.46
2023-03-13T00:14:53.843Z,5.75
2023-03-13T00:15:53.826Z,5.75
2023-03-13T00:16:53.850Z,6.72
2023-03-13T00:17:53.802Z,7.04
2023-03-13T00:18:53.847Z,7.04
2023-03-13T00:19:53.779Z,6.40
2023-03-13T00:20:53.766Z,6.72
2023-03-13T00:21:53.751Z,6.40
2023-03-13T00:22:53.737Z,8.01
2023-03-13T00:23:54.144Z,7.69
2023-03-13T00:24:53.704Z,6.07
2023-03-13T00:25:53.691Z,6.72
2023-03-13T00:26:53.677Z,5.11
2023-03-13T00:27:53.687Z,7.04
2023-03-13T00:28:53.650Z,8.33
2023-03-13T00:29:53.657Z,6.72
2023-03-13T00:30:53.679Z,8.01
2023-03-13T00:31:53.665Z,6.07
2023-03-13T00:32:53.666Z,4.79
2023-03-13T00:33:53.638Z,8.01
2023-03-13T00:34:53.591Z,8.97
2023-03-13T00:35:53.583Z,6.72
2023-03-13T00:36:53.545Z,6.72
2023-03-13T00:37:53.533Z,5.11
2023-03-13T00:38:53.518Z,6.07
2023-03-13T00:39:53.529Z,8.01
2023-03-13T00:40:53.484Z,7.36
2023-03-13T00:41:53.474Z,7.04
2023-03-13T00:42:53.460Z,6.07
2023-03-13T00:43:53.459Z,7.04
2023-03-13T00:44:53.434Z,5.75
2023-03-13T00:45:53.468Z,7.04
2023-03-13T00:46:53.404Z,7.04
2023-03-13T00:47:53.398Z,5.11
2023-03-13T00:48:53.385Z,4.46
2023-03-13T00:49:53.372Z,8.01
2023-03-13T00:50:53.348Z,6.07
2023-03-13T00:51:53.340Z,7.04
2023-03-13T00:52:53.324Z,6.72
2023-03-13T00:53:53.316Z,5.75
2023-03-13T00:54:53.293Z,6.40
2023-03-13T00:55:53.318Z,9.62
2023-03-13T00:56:53.272Z,5.43
2023-03-13T00:57:53.261Z,4.79
2023-03-13T00:58:53.297Z,6.40
2023-03-13T00:59:53.231Z,5.75
2023-03-13T01:00:53.212Z,6.07
2023-03-13T01:01:53.216Z,6.07
2023-03-13T01:02:53.385Z,6.07
2023-03-13T01:03:53.182Z,4.79
2023-03-13T01:04:53.162Z,5.75
2023-03-13T01:05:53.149Z,6.07
2023-03-13T01:06:53.137Z,7.69
2023-03-13T01:07:53.124Z,6.07
2023-03-13T01:08:53.115Z,8.01
2023-03-13T01:09:53.100Z,7.04
2023-03-13T01:10:53.086Z,8.01
2023-03-13T01:11:53.208Z,5.11
2023-03-13T01:12:53.064Z,5.43
2023-03-13T01:13:53.060Z,6.72
2023-03-13T01:14:53.032Z,5.75
2023-03-13T01:15:53.110Z,7.36
2023-03-13T01:16:53.156Z,7.69
2023-03-13T01:17:52.998Z,7.04
2023-03-13T01:18:52.998Z,8.01
2023-03-13T01:19:52.975Z,8.01
2023-03-13T01:20:52.974Z,6.40
2023-03-13T01:21:53.249Z,7.36
2023-03-13T01:22:52.940Z,5.75
2023-03-13T01:23:52.935Z,5.75
2023-03-13T01:24:52.928Z,7.04
2023-03-13T01:25:52.888Z,5.43
2023-03-13T01:26:52.874Z,6.07
2023-03-13T01:27:52.899Z,5.11
2023-03-13T01:28:53.306Z,8.01
2023-03-13T01:29:52.843Z,5.11
2023-03-13T01:30:52.896Z,5.11
2023-03-13T01:31:52.808Z,5.43
2023-03-13T01:32:52.885Z,5.75
2023-03-13T01:33:52.787Z,8.33
2023-03-13T01:34:52.784Z,6.40
2023-03-13T01:35:52.867Z,6.72
2023-03-13T01:36:52.750Z,6.72
2023-03-13T01:37:52.738Z,6.72
2023-03-13T01:38:52.724Z,7.36
2023-03-13T01:39:52.708Z,7.36
2023-03-13T01:40:52.720Z,5.43
2023-03-13T01:41:52.678Z,8.01
2023-03-13T01:42:52.670Z,5.11
2023-03-13T01:43:52.700Z,6.07
2023-03-13T01:44:52.638Z,5.75
2023-03-13T01:45:52.632Z,5.11
2023-03-13T01:46:52.609Z,6.40
2023-03-13T01:47:52.597Z,8.33
2023-03-13T01:48:52.588Z,5.43
2023-03-13T01:49:52.576Z,5.75
2023-03-13T01:50:52.556Z,7.04
2023-03-13T01:51:52.557Z,6.40
2023-03-13T01:52:52.531Z,7.69
2023-03-13T01:53:52.526Z,5.43
2023-03-13T01:54:52.506Z,7.04
2023-03-13T01:55:52.490Z,5.43
2023-03-13T01:56:52.481Z,8.01
2023-03-13T01:57:52.467Z,6.40
2023-03-13T01:58:52.451Z,5.43
2023-03-13T01:59:52.477Z,7.69
2023-03-13T02:00:52.432Z,8.01
2023-03-13T02:01:52.485Z,6.72
2023-03-13T02:02:52.436Z,6.07
2023-03-13T02:03:52.391Z,5.43
2023-03-13T02:04:52.377Z,5.11
2023-03-13T02:05:52.376Z,7.04
2023-03-13T02:06:52.347Z,6.40
2023-03-13T02:07:52.333Z,7.69
2023-03-13T02:08:52.317Z,8.01
2023-03-13T02:09:52.304Z,7.36
2023-03-13T02:10:52.289Z,6.07
2023-03-13T02:11:52.277Z,7.36
2023-03-13T02:12:52.261Z,7.36
2023-03-13T02:13:52.250Z,7.69
2023-03-13T02:14:52.240Z,7.04
2023-03-13T02:15:52.264Z,6.07
2023-03-13T02:16:52.255Z,5.11
2023-03-13T02:17:52.229Z,5.11
2023-03-13T02:18:52.193Z,7.04
2023-03-13T02:19:52.185Z,5.75
2023-03-13T02:20:52.178Z,5.75
2023-03-13T02:21:52.149Z,7.36
2023-03-13T02:22:52.136Z,6.72
2023-03-13T02:23:52.120Z,4.79
2023-03-13T02:24:52.100Z,7.04
2023-03-13T02:25:52.127Z,5.75
2023-03-13T02:26:52.082Z,5.43
2023-03-13T02:27:52.315Z,8.97
2023-03-13T02:28:52.061Z,5.75
2023-03-13T02:29:52.047Z,5.75
2023-03-13T02:30:52.032Z,5.11
2023-03-13T02:31:52.509Z,8.33
2023-03-13T02:32:52.055Z,6.07
2023-03-13T02:33:51.987Z,6.40
2023-03-13T02:34:51.969Z,7.04
2023-03-13T02:35:52.005Z,6.40
2023-03-13T02:36:51.939Z,7.04
2023-03-13T02:37:51.931Z,6.40
2023-03-13T02:38:51.913Z,5.43
2023-03-13T02:39:51.909Z,7.36
2023-03-13T02:40:51.897Z,5.75
2023-03-13T02:41:51.888Z,6.07
2023-03-13T02:42:51.866Z,5.11
2023-03-13T02:43:51.860Z,7.69
2023-03-13T02:44:51.836Z,5.75
2023-03-13T02:45:51.832Z,6.40
2023-03-13T02:46:51.886Z,5.75
2023-03-13T02:47:51.828Z,6.72
2023-03-13T02:48:51.802Z,5.75
2023-03-13T02:49:51.779Z,5.43
2023-03-13T02:50:51.757Z,5.43
2023-03-13T02:51:51.762Z,8.01
2023-03-13T02:52:51.730Z,8.33
2023-03-13T02:53:51.724Z,6.40
2023-03-13T02:54:51.710Z,5.75
2023-03-13T02:55:51.699Z,5.11
2023-03-13T02:56:51.691Z,7.04
2023-03-13T02:57:51.674Z,7.04
2023-03-13T02:58:51.685Z,6.40
2023-03-13T02:59:51.649Z,6.72
2023-03-13T03:00:51.687Z,5.43
2023-03-13T03:01:51.618Z,5.11
2023-03-13T03:02:51.604Z,5.75
2023-03-13T03:03:51.705Z,5.75
2023-03-13T03:04:51.575Z,5.75
2023-03-13T03:05:51.559Z,6.07
2023-03-13T03:06:51.549Z,8.33
2023-03-13T03:07:51.531Z,7.69
2023-03-13T03:08:51.522Z,7.04
2023-03-13T03:09:51.509Z,5.75
2023-03-13T03:10:51.500Z,9.30
2023-03-13T03:11:51.487Z,8.01
2023-03-13T03:12:51.471Z,8.33
2023-03-13T03:13:51.452Z,5.11
2023-03-13T03:14:51.444Z,5.75
2023-03-13T03:15:51.433Z,7.36
2023-03-13T03:16:51.490Z,5.75
2023-03-13T03:17:51.402Z,5.11
2023-03-13T03:18:51.392Z,6.72
2023-03-13T03:19:51.400Z,6.72
2023-03-13T03:20:51.366Z,4.79
2023-03-13T03:21:51.345Z,6.40
2023-03-13T03:22:51.337Z,5.75
2023-03-13T03:23:51.321Z,5.75
2023-03-13T03:24:51.308Z,5.43
2023-03-13T03:25:51.292Z,8.01
2023-03-13T03:26:51.276Z,7.36
2023-03-13T03:27:51.260Z,5.11
2023-03-13T03:28:51.248Z,6.07
2023-03-13T03:29:51.234Z,4.79
2023-03-13T03:30:51.220Z,7.69
2023-03-13T03:31:51.299Z,7.69
2023-03-13T03:32:51.247Z,6.07
2023-03-13T03:33:51.188Z,6.72
2023-03-13T03:34:51.168Z,3.82
2023-03-13T03:35:51.305Z,5.75
2023-03-13T03:36:51.142Z,9.30
2023-03-13T03:37:51.143Z,7.04
2023-03-13T03:38:51.112Z,5.75
2023-03-13T03:39:51.097Z,6.07
2023-03-13T03:40:51.088Z,7.36
2023-03-13T03:41:51.070Z,7.69
2023-03-13T03:42:51.061Z,6.40
2023-03-13T03:43:51.049Z,5.11
2023-03-13T03:44:51.043Z,5.43
2023-03-13T03:45:51.071Z,6.07
2023-03-13T03:46:51.036Z,7.04
2023-03-13T03:47:50.992Z,7.69
2023-03-13T03:48:50.982Z,6.07
2023-03-13T03:49:50.971Z,7.04
2023-03-13T03:50:50.960Z,7.36
2023-03-13T03:51:51.317Z,6.07
2023-03-13T03:52:50.928Z,5.75
2023-03-13T03:53:50.911Z,6.72
2023-03-13T03:54:50.901Z,8.65
2023-03-13T03:55:50.886Z,6.72
2023-03-13T03:56:50.876Z,6.72
2023-03-13T03:57:50.859Z,5.11
2023-03-13T03:58:50.849Z,7.69
2023-03-13T03:59:50.837Z,7.04
2023-03-13T04:00:50.826Z,4.14
2023-03-13T04:01:50.885Z,5.75
2023-03-13T04:02:50.802Z,5.43
2023-03-13T04:03:50.788Z,7.04
2023-03-13T04:04:50.775Z,5.43
2023-03-13T04:05:50.759Z,6.07
2023-03-13T04:06:50.745Z,6.40
2023-03-13T04:07:50.755Z,6.40
2023-03-13T04:08:50.722Z,7.04
2023-03-13T04:09:50.750Z,5.75
2023-03-13T04:10:50.687Z,8.01
2023-03-13T04:11:50.684Z,8.01
2023-03-13T04:12:50.661Z,8.01
2023-03-13T04:13:50.752Z,5.75
2023-03-13T04:14:50.636Z,6.07
2023-03-13T04:15:50.625Z,6.40
2023-03-13T04:16:50.850Z,5.43
2023-03-13T04:17:50.604Z,5.11
2023-03-13T04:18:50.736Z,6.07
2023-03-13T04:19:50.573Z,9.30
2023-03-13T04:20:50.811Z,5.11
2023-03-13T04:21:50.797Z,6.40
2023-03-13T04:22:50.549Z,7.69
2023-03-13T04:23:50.848Z,7.04
2023-03-13T04:24:50.500Z,6.72
2023-03-13T04:25:50.490Z,7.69
2023-03-13T04:26:50.483Z,5.11
2023-03-13T04:27:50.613Z,6.72
2023-03-13T04:28:50.449Z,7.36
2023-03-13T04:29:50.436Z,6.72
2023-03-13T04:30:50.463Z,6.72
2023-03-13T04:31:50.423Z,8.01
2023-03-13T04:32:50.438Z,7.04
2023-03-13T04:33:50.386Z,8.33
2023-03-13T04:34:50.434Z,6.40
2023-03-13T04:35:50.426Z,5.75
2023-03-13T04:36:50.346Z,5.11
2023-03-13T04:37:50.338Z,6.07
2023-03-13T04:38:50.322Z,6.07
2023-03-13T04:39:50.333Z,5.43
2023-03-13T04:40:50.294Z,7.36
2023-03-13T04:41:50.278Z,5.75
2023-03-13T04:42:50.266Z,5.75
2023-03-13T04:43:50.246Z,6.07
2023-03-13T04:44:50.231Z,5.75
2023-03-13T04:45:50.304Z,5.43
2023-03-13T04:46:50.204Z,6.72
2023-03-13T04:47:50.195Z,6.07
2023-03-13T04:48:50.201Z,5.75
2023-03-13T04:49:50.170Z,5.11
2023-03-13T04:50:50.158Z,5.11
2023-03-13T04:51:50.145Z,6.40
2023-03-13T04:52:50.126Z,6.40
2023-03-13T04:53:50.128Z,6.72
2023-03-13T04:54:50.101Z,6.07
2023-03-13T04:55:50.117Z,6.07
2023-03-13T04:56:50.080Z,7.69
2023-03-13T04:57:50.065Z,5.75
2023-03-13T04:58:50.057Z,6.40
2023-03-13T04:59:50.048Z,6.40
2023-03-13T05:00:50.028Z,7.36
2023-03-13T05:01:50.108Z,5.11
2023-03-13T05:02:49.998Z,5.43
2023-03-13T05:03:49.982Z,6.07
2023-03-13T05:04:52.122Z,6.07
2023-03-13T05:05:49.956Z,8.33
2023-03-13T05:06:49.943Z,7.36
2023-03-13T05:07:49.929Z,6.07
2023-03-13T05:08:49.924Z,5.75
2023-03-13T05:09:49.904Z,5.75
2023-03-13T05:10:49.916Z,5.43
2023-03-13T05:11:49.903Z,8.01
2023-03-13T05:12:49.863Z,6.40
2023-03-13T05:13:49.849Z,8.65
2023-03-13T05:14:49.839Z,7.04
2023-03-13T05:15:49.898Z,6.07
2023-03-13T05:16:49.812Z,6.40
2023-03-13T05:17:49.906Z,6.72
2023-03-13T05:18:49.794Z,5.43
2023-03-13T05:19:49.767Z,7.04
2023-03-13T05:20:49.752Z,8.33
2023-03-13T05:21:49.843Z,6.72
2023-03-13T05:22:49.731Z,6.72
2023-03-13T05:23:49.710Z,8.65
2023-03-13T05:24:49.945Z,6.07
2023-03-13T05:25:49.887Z,5.75
2023-03-13T05:26:49.671Z,7.04
2023-03-13T05:27:49.688Z,5.75
2023-03-13T05:28:49.642Z,6.07
2023-03-13T05:29:49.634Z,6.72
2023-03-13T05:30:49.999Z,8.65
2023-03-13T05:31:49.610Z,7.69
2023-03-13T05:32:49.722Z,6.40
2023-03-13T05:33:49.589Z,7.04
2023-03-13T05:34:49.568Z,6.72
2023-03-13T05:35:49.603Z,6.40
2023-03-13T05:36:49.536Z,7.04
2023-03-13T05:37:49.532Z,5.11
2023-03-13T05:38:49.510Z,5.43
2023-03-13T05:39:49.501Z,8.33
2023-03-13T05:40:49.485Z,5.75
2023-03-13T05:41:49.469Z,6.07
2023-03-13T05:42:49.456Z,7.04
2023-03-13T05:43:49.475Z,9.30
2023-03-13T05:44:49.447Z,6.07
2023-03-13T05:45:49.427Z,6.72
2023-03-13T05:46:49.504Z,7.04
2023-03-13T05:47:49.399Z,6.40
2023-03-13T05:48:49.380Z,6.40
2023-03-13T05:49:49.381Z,6.40
2023-03-13T05:50:49.354Z,6.72
2023-03-13T05:51:49.354Z,8.33
2023-03-13T05:52:49.326Z,6.07
2023-03-13T05:53:49.321Z,7.36
2023-03-13T05:54:49.296Z,6.07
2023-03-13T05:55:49.282Z,7.69
2023-03-13T05:56:49.266Z,7.04
2023-03-13T05:57:49.253Z,7.36
2023-03-13T05:58:49.269Z,7.69
2023-03-13T05:59:49.250Z,8.97
2023-03-13T06:00:49.226Z,7.36
2023-03-13T06:01:49.196Z,8.65
2023-03-13T06:02:49.204Z,6.07
2023-03-13T06:03:49.430Z,7.69
2023-03-13T06:04:49.305Z,7.69
2023-03-13T06:05:49.151Z,6.07
2023-03-13T06:06:49.134Z,9.30
2023-03-13T06:07:49.120Z,7.69
2023-03-13T06:08:49.107Z,5.43
2023-03-13T06:09:49.100Z,6.07
2023-03-13T06:10:49.082Z,6.72
2023-03-13T06:11:49.066Z,8.01
2023-03-13T06:12:49.055Z,7.36
2023-03-13T06:13:49.037Z,6.07
2023-03-13T06:14:49.024Z,6.72
2023-03-13T06:15:49.059Z,8.33
2023-03-13T06:16:49.001Z,6.72
2023-03-13T06:17:48.998Z,6.40
2023-03-13T06:18:48.988Z,6.40
2023-03-13T06:19:48.957Z,7.04
2023-03-13T06:20:48.937Z,7.04
2023-03-13T06:21:48.931Z,6.40
2023-03-13T06:22:48.914Z,5.75
2023-03-13T06:23:48.905Z,7.04
2023-03-13T06:24:48.907Z,8.33
2023-03-13T06:25:48.880Z,6.40
2023-03-13T06:26:49.764Z,6.72
2023-03-13T06:27:48.852Z,7.36
2023-03-13T06:28:48.837Z,6.07
2023-03-13T06:29:48.872Z,7.36
2023-03-13T06:30:48.809Z,6.40
2023-03-13T06:31:49.007Z,6.72
2023-03-13T06:32:48.920Z,6.40
2023-03-13T06:33:50.648Z,8.65
2023-03-13T06:34:48.754Z,6.40
2023-03-13T06:35:56.281Z,6.72
2023-03-13T06:36:49.751Z,6.72
2023-03-13T06:37:48.718Z,8.01
2023-03-13T06:38:48.698Z,6.72
2023-03-13T06:39:48.697Z,7.36
2023-03-13T06:40:48.678Z,6.07
2023-03-13T06:41:48.673Z,8.33
2023-03-13T06:42:48.650Z,8.33
2023-03-13T06:43:48.651Z,7.04
2023-03-13T06:44:48.628Z,7.36
2023-03-13T06:45:48.636Z,6.07
2023-03-13T06:46:48.685Z,7.04
2023-03-13T06:47:48.607Z,6.07
2023-03-13T06:48:48.570Z,7.04
2023-03-13T06:49:48.557Z,7.04
2023-03-13T06:50:48.553Z,6.72
2023-03-13T06:51:48.530Z,8.33
2023-03-13T06:52:48.516Z,6.40
2023-03-13T06:53:48.535Z,8.33
2023-03-13T06:54:48.505Z,6.07
2023-03-13T06:55:48.472Z,8.33
2023-03-13T06:56:48.458Z,6.72
2023-03-13T06:57:48.444Z,7.04
2023-03-13T06:58:48.430Z,6.72
2023-03-13T06:59:48.421Z,7.04
2023-03-13T07:00:48.460Z,7.36
2023-03-13T07:01:48.393Z,6.40
2023-03-13T07:02:48.378Z,5.11
2023-03-13T07:03:48.412Z,7.36
2023-03-13T07:04:48.359Z,6.72
2023-03-13T07:05:48.346Z,6.72
2023-03-13T07:06:48.331Z,6.72
2023-03-13T07:07:48.326Z,8.97
2023-03-13T07:08:48.307Z,8.33
2023-03-13T07:09:48.293Z,7.36
2023-03-13T07:10:48.278Z,6.72
2023-03-13T07:11:48.263Z,6.72
2023-03-13T07:12:48.250Z,6.07
2023-03-13T07:13:48.241Z,8.65
2023-03-13T07:14:48.225Z,8.65
2023-03-13T07:15:48.215Z,6.40
2023-03-13T07:16:48.222Z,8.33
2023-03-13T07:17:48.183Z,7.36
2023-03-13T07:18:48.172Z,7.36
2023-03-13T07:19:48.196Z,7.04
2023-03-13T07:20:48.163Z,8.01
2023-03-13T07:21:48.137Z,6.72
2023-03-13T07:22:48.127Z,8.65
2023-03-13T07:23:48.107Z,9.30
2023-03-13T07:24:48.161Z,7.36
2023-03-13T07:25:48.081Z,7.04
2023-03-13T07:27:03.905Z,9.30
2023-03-13T07:27:49.088Z,8.33
2023-03-13T07:28:48.051Z,9.30
2023-03-13T07:29:48.062Z,8.65
2023-03-13T07:30:48.019Z,8.01
2023-03-13T07:31:48.041Z,7.36
2023-03-13T07:32:48.061Z,7.69
2023-03-13T07:33:48.029Z,7.04
2023-03-13T07:34:47.964Z,7.04
2023-03-13T07:35:47.985Z,7.36
2023-03-13T07:36:47.953Z,6.72
2023-03-13T07:37:47.921Z,6.40
2023-03-13T07:38:47.912Z,7.36
2023-03-13T07:39:47.893Z,7.69
2023-03-13T07:40:47.878Z,10.59
2023-03-13T07:41:47.867Z,6.72
2023-03-13T07:42:47.857Z,8.01
2023-03-13T07:43:47.845Z,5.11
2023-03-13T07:44:47.834Z,7.36
2023-03-13T07:45:47.817Z,8.01
2023-03-13T07:46:47.803Z,6.72
2023-03-13T07:47:47.789Z,7.69
2023-03-13T07:48:47.775Z,6.72
2023-03-13T07:49:47.762Z,7.36
2023-03-13T07:50:47.746Z,8.65
2023-03-13T07:51:47.787Z,7.36
2023-03-13T07:52:47.786Z,7.04
2023-03-13T07:53:47.752Z,7.04
2023-03-13T07:54:47.689Z,7.36
2023-03-13T07:55:47.683Z,7.69
2023-03-13T07:56:47.681Z,7.36
2023-03-13T07:57:47.656Z,7.69
2023-03-13T07:58:47.656Z,8.33
2023-03-13T07:59:47.692Z,7.36
2023-03-13T08:00:47.611Z,8.01
2023-03-13T08:01:47.679Z,6.72
2023-03-13T08:02:47.733Z,7.69
2023-03-13T08:03:47.624Z,7.36
2023-03-13T08:04:47.552Z,7.04
2023-03-13T08:05:47.541Z,6.07
2023-03-13T08:06:47.530Z,8.01
2023-03-13T08:07:47.544Z,7.36
2023-03-13T08:08:47.506Z,9.30
2023-03-13T08:09:47.496Z,7.04
2023-03-13T08:10:47.495Z,7.04
2023-03-13T08:11:47.467Z,8.97
2023-03-13T08:12:47.449Z,8.01
2023-03-13T08:13:47.441Z,7.36
2023-03-13T08:14:47.476Z,7.36
2023-03-13T08:15:47.408Z,8.33
2023-03-13T08:16:47.426Z,7.36
2023-03-13T08:17:47.380Z,7.04
2023-03-13T08:18:47.365Z,9.62
2023-03-13T08:19:47.503Z,8.33
2023-03-13T08:20:47.348Z,8.33
2023-03-13T08:21:47.338Z,8.01
2023-03-13T08:22:47.310Z,7.36
2023-03-13T08:23:47.377Z,7.69
2023-03-13T08:24:47.538Z,8.01
2023-03-13T08:25:47.274Z,9.30
2023-03-13T08:26:47.258Z,8.33
2023-03-13T08:27:47.241Z,9.62
2023-03-13T08:28:47.231Z,8.97
2023-03-13T08:29:47.231Z,7.69
2023-03-13T08:30:47.280Z,8.65
2023-03-13T08:31:47.188Z,9.30
2023-03-13T08:32:47.282Z,7.36
2023-03-13T08:33:47.171Z,8.65
2023-03-13T08:34:47.149Z,8.33
2023-03-13T08:35:47.176Z,9.30
2023-03-13T08:36:47.136Z,8.01
2023-03-13T08:37:47.111Z,9.94
2023-03-13T08:38:47.102Z,8.01
2023-03-13T08:39:47.209Z,7.36
2023-03-13T08:40:47.075Z,8.01
2023-03-13T08:41:47.061Z,9.94
2023-03-13T08:42:47.047Z,9.62
2023-03-13T08:43:47.030Z,8.33
2023-03-13T08:44:47.018Z,6.07
2023-03-13T08:45:47.030Z,8.65
2023-03-13T08:46:46.990Z,9.30
2023-03-13T08:47:46.982Z,8.01
2023-03-13T08:48:46.965Z,9.30
2023-03-13T08:49:46.958Z,7.69
2023-03-13T08:50:46.944Z,8.01
2023-03-13T08:51:46.924Z,7.36
2023-03-13T08:52:46.927Z,7.69
2023-03-13T08:53:46.907Z,7.69
2023-03-13T08:54:46.887Z,6.72
2023-03-13T08:55:46.892Z,8.65
2023-03-13T08:56:46.858Z,9.94
2023-03-13T08:57:46.849Z,7.36
2023-03-13T08:58:46.834Z,8.01
2023-03-13T08:59:46.822Z,9.94
2023-03-13T09:00:46.824Z,7.69
2023-03-13T09:01:46.800Z,7.04
2023-03-13T09:02:46.916Z,7.69
2023-03-13T09:03:47.245Z,8.01
2023-03-13T09:04:46.753Z,8.01
2023-03-13T09:05:55.929Z,8.01
2023-03-13T09:06:47.751Z,7.36
2023-03-13T09:07:46.711Z,7.36
2023-03-13T09:08:46.713Z,7.69
2023-03-13T09:09:46.789Z,7.04
2023-03-13T09:10:46.676Z,11.23
2023-03-13T09:11:46.686Z,8.33
2023-03-13T09:12:46.801Z,8.01
2023-03-13T09:13:46.635Z,7.69
2023-03-13T09:14:46.624Z,8.01
2023-03-13T09:15:46.667Z,9.30
2023-03-13T09:16:46.598Z,8.01
2023-03-13T09:17:46.587Z,7.36
2023-03-13T09:18:46.578Z,10.26
2023-03-13T09:19:59.440Z,8.33
2023-03-13T09:20:49.025Z,10.26
2023-03-13T09:21:46.556Z,7.36
2023-03-13T09:22:46.517Z,8.01
2023-03-13T09:23:46.510Z,8.01
2023-03-13T09:24:46.491Z,7.69
2023-03-13T09:25:46.495Z,8.01
2023-03-13T09:27:00.175Z,10.26
2023-03-13T09:27:47.501Z,8.97
2023-03-13T09:28:46.435Z,8.01
2023-03-13T09:29:46.447Z,9.30
2023-03-13T09:30:46.469Z,8.65
2023-03-13T09:31:46.403Z,9.30
2023-03-13T09:32:46.398Z,9.62
2023-03-13T09:33:46.377Z,8.65
2023-03-13T09:34:46.376Z,9.62
2023-03-13T09:35:46.375Z,9.30
2023-03-13T09:36:46.336Z,9.30
2023-03-13T09:37:46.327Z,9.62
2023-03-13T09:38:46.463Z,8.65
2023-03-13T09:39:46.283Z,8.97
2023-03-13T09:40:56.644Z,9.62
2023-03-13T09:41:47.297Z,9.30
2023-03-13T09:42:46.285Z,9.94
2023-03-13T09:43:46.313Z,9.62
2023-03-13T09:44:46.242Z,10.26
2023-03-13T09:45:46.219Z,9.62
2023-03-13T09:46:46.343Z,9.30
2023-03-13T09:47:46.193Z,9.30
2023-03-13T09:48:46.189Z,9.30
2023-03-13T09:49:46.213Z,8.33
2023-03-13T09:50:46.153Z,8.97
2023-03-13T09:51:46.135Z,9.62
2023-03-13T09:52:46.118Z,8.65
2023-03-13T09:53:46.117Z,9.94
2023-03-13T09:54:46.098Z,10.59
2023-03-13T09:55:46.100Z,11.87
2023-03-13T09:56:46.071Z,8.65
2023-03-13T09:57:46.159Z,9.62
2023-03-13T09:58:46.093Z,9.30
2023-03-13T09:59:46.050Z,10.26
2023-03-13T10:00:46.017Z,8.97
2023-03-13T10:01:46.338Z,9.62
2023-03-13T10:02:46.018Z,8.97
2023-03-13T10:03:46.086Z,9.94
2023-03-13T10:04:46.252Z,8.65
2023-03-13T10:05:45.991Z,9.94
2023-03-13T10:06:45.951Z,9.62
2023-03-13T10:07:46.275Z,10.59
2023-03-13T10:08:45.912Z,8.65
2023-03-13T10:09:45.929Z,9.62
2023-03-13T10:10:45.882Z,9.62
2023-03-13T10:11:45.886Z,8.65
2023-03-13T10:12:45.855Z,9.94
2023-03-13T10:13:45.960Z,8.97
2023-03-13T10:14:45.837Z,8.97
2023-03-13T10:15:45.866Z,9.30
2023-03-13T10:16:45.811Z,9.62
2023-03-13T10:17:45.782Z,12.20
2023-03-13T10:18:45.768Z,9.94
2023-03-13T10:19:45.755Z,9.30
2023-03-13T10:20:45.751Z,8.65
2023-03-13T10:21:45.741Z,8.01
2023-03-13T10:22:45.723Z,11.23
2023-03-13T10:23:45.710Z,10.26
2023-03-13T10:24:45.694Z,10.59
2023-03-13T10:25:45.688Z,9.30
2023-03-13T10:26:45.669Z,8.97
2023-03-13T10:27:45.654Z,9.94
2023-03-13T10:28:45.643Z,9.94
2023-03-13T10:29:45.637Z,9.30
2023-03-13T10:30:45.614Z,10.59
2023-03-13T10:31:45.648Z,9.30
2023-03-13T10:32:45.643Z,9.30
2023-03-13T10:33:45.569Z,11.87
2023-03-13T10:34:45.558Z,10.26
2023-03-13T10:35:45.601Z,9.94
2023-03-13T10:36:45.535Z,8.65
2023-03-13T10:37:45.522Z,9.94
2023-03-13T10:38:45.525Z,9.62
2023-03-13T10:39:45.490Z,10.26
2023-03-13T10:40:45.485Z,9.62
2023-03-13T10:41:45.466Z,10.91
2023-03-13T10:42:45.453Z,9.94
2023-03-13T10:43:45.436Z,10.26
2023-03-13T10:44:45.429Z,10.59
2023-03-13T10:45:45.412Z,9.62
2023-03-13T10:46:45.541Z,11.55
2023-03-13T10:47:45.420Z,10.59
2023-03-13T10:48:45.377Z,9.62
2023-03-13T10:49:45.365Z,9.30
2023-03-13T10:50:45.357Z,10.26
2023-03-13T10:51:45.340Z,10.91
2023-03-13T10:52:45.341Z,9.62
2023-03-13T10:53:45.315Z,9.62
2023-03-13T10:54:45.309Z,9.30
2023-03-13T10:55:45.283Z,9.62
2023-03-13T10:56:45.336Z,10.91
2023-03-13T10:57:45.256Z,9.94
2023-03-13T10:58:45.269Z,9.62
2023-03-13T10:59:45.233Z,10.91
2023-03-13T11:00:45.329Z,9.94
2023-03-13T11:01:45.266Z,9.30
2023-03-13T11:02:45.270Z,9.94
2023-03-13T11:03:45.249Z,9.30
2023-03-13T11:04:45.324Z,9.94
2023-03-13T11:05:45.277Z,9.94
2023-03-13T11:06:45.244Z,12.20
2023-03-13T11:07:45.127Z,9.30
2023-03-13T11:08:45.220Z,10.26
2023-03-13T11:09:45.353Z,10.26
2023-03-13T11:10:45.089Z,12.84
2023-03-13T11:11:45.078Z,9.30
2023-03-13T11:12:45.069Z,11.55
2023-03-13T11:13:45.270Z,8.97
2023-03-13T11:14:45.060Z,8.65
2023-03-13T11:15:45.028Z,9.30
2023-03-13T11:16:45.114Z,10.91
2023-03-13T11:17:45.007Z,9.62
2023-03-13T11:18:44.993Z,9.94
2023-03-13T11:19:45.004Z,11.55
2023-03-13T11:20:44.962Z,9.94
2023-03-13T11:21:45.006Z,11.23
2023-03-13T11:22:44.929Z,10.26
2023-03-13T11:23:44.914Z,11.23
2023-03-13T11:24:44.933Z,10.26
2023-03-13T11:25:44.942Z,8.33
2023-03-13T11:26:52.381Z,9.62
2023-03-13T11:27:45.893Z,11.87
2023-03-13T11:28:44.874Z,9.62
2023-03-13T11:29:44.880Z,9.94
2023-03-13T11:30:44.917Z,11.55
2023-03-13T11:31:44.937Z,9.94
2023-03-13T11:32:44.964Z,9.62
2023-03-13T11:33:44.791Z,10.26
2023-03-13T11:34:44.779Z,11.87
2023-03-13T11:35:44.841Z,11.23
2023-03-13T11:36:44.743Z,10.59
2023-03-13T11:37:44.730Z,11.55
2023-03-13T11:38:44.742Z,10.26
2023-03-13T11:39:44.755Z,10.26
2023-03-13T11:40:44.695Z,12.52
2023-03-13T11:41:44.820Z,10.26
2023-03-13T11:42:44.673Z,10.91
2023-03-13T11:43:44.652Z,10.91
2023-03-13T11:44:44.637Z,11.23
2023-03-13T11:45:44.744Z,12.52
2023-03-13T11:46:44.886Z,9.94
2023-03-13T11:47:44.600Z,12.20
2023-03-13T11:48:44.614Z,11.55
2023-03-13T11:49:44.573Z,11.23
2023-03-13T11:50:44.592Z,9.62
2023-03-13T11:51:44.678Z,10.91
2023-03-13T11:52:44.614Z,10.26
2023-03-13T11:53:44.594Z,10.59
2023-03-13T11:54:44.535Z,9.94
2023-03-13T11:55:44.513Z,10.26
2023-03-13T11:56:44.500Z,12.20
2023-03-13T11:57:44.483Z,9.62
2023-03-13T11:58:44.467Z,10.91
2023-03-13T11:59:44.444Z,11.23
2023-03-13T12:00:44.472Z,11.55
2023-03-13T12:01:46.623Z,10.26
2023-03-13T12:02:44.548Z,11.23
2023-03-13T12:03:44.499Z,11.23
2023-03-13T12:04:44.531Z,10.26
2023-03-13T12:05:44.366Z,12.52
2023-03-13T12:06:44.356Z,11.55
2023-03-13T12:07:44.469Z,12.20
2023-03-13T12:08:44.425Z,10.59
2023-03-13T12:09:44.320Z,11.55
2023-03-13T12:10:44.311Z,11.87
2023-03-13T12:11:44.293Z,12.52
2023-03-13T12:12:44.680Z,11.23
2023-03-13T12:13:44.278Z,11.55
2023-03-13T12:14:44.263Z,11.23
2023-03-13T12:15:44.262Z,11.55
2023-03-13T12:16:44.299Z,11.23
2023-03-13T12:17:44.306Z,10.91
2023-03-13T12:18:44.302Z,11.23
2023-03-13T12:19:44.200Z,10.91
2023-03-13T12:20:44.189Z,12.52
2023-03-13T12:21:44.231Z,10.59
2023-03-13T12:22:44.167Z,11.23
2023-03-13T12:23:44.293Z,11.87
2023-03-13T12:24:44.131Z,11.23
2023-03-13T12:25:44.239Z,12.20
2023-03-13T12:26:44.113Z,12.52
2023-03-13T12:27:44.093Z,11.23
2023-03-13T12:28:44.098Z,11.87
2023-03-13T12:29:44.071Z,12.20
2023-03-13T12:30:44.107Z,11.87
2023-03-13T12:31:44.046Z,12.84
2023-03-13T12:32:44.116Z,11.55
2023-03-13T12:33:44.023Z,12.20
2023-03-13T12:34:44.045Z,11.23
2023-03-13T12:35:44.010Z,11.87
2023-03-13T12:36:43.989Z,12.20
2023-03-13T12:37:43.976Z,11.55
2023-03-13T12:38:44.090Z,11.87
2023-03-13T12:39:43.979Z,13.16
2023-03-13T12:40:43.949Z,12.20
2023-03-13T12:41:43.924Z,13.49
2023-03-13T12:42:43.913Z,11.55
2023-03-13T12:43:45.238Z,13.49
2023-03-13T12:44:43.916Z,12.84
2023-03-13T12:45:43.981Z,12.52
2023-03-13T12:46:43.934Z,11.87
2023-03-13T12:47:43.859Z,11.23
2023-03-13T12:48:43.896Z,12.52
2023-03-13T12:49:43.829Z,12.20
2023-03-13T12:50:44.270Z,12.84
2023-03-13T12:51:43.808Z,11.55
2023-03-13T12:52:43.808Z,10.91
2023-03-13T12:53:43.820Z,12.20
2023-03-13T12:54:43.768Z,12.20
2023-03-13T12:55:43.808Z,12.20
2023-03-13T12:56:43.741Z,12.84
2023-03-13T12:57:43.784Z,13.49
2023-03-13T12:58:43.823Z,12.84
2023-03-13T12:59:43.704Z,12.84
2023-03-13T13:00:43.699Z,11.87
2023-03-13T13:01:43.689Z,13.81
2023-03-13T13:02:43.680Z,11.55
2023-03-13T13:03:43.671Z,11.87
2023-03-13T13:04:43.761Z,13.16
2023-03-13T13:05:43.630Z,11.87
2023-03-13T13:06:43.621Z,11.55
2023-03-13T13:07:43.602Z,12.84
2023-03-13T13:08:43.595Z,13.49
2023-03-13T13:09:43.608Z,13.16
2023-03-13T13:10:43.562Z,11.55
2023-03-13T13:11:43.572Z,13.81
2023-03-13T13:12:43.534Z,11.87
2023-03-13T13:13:43.521Z,12.84